Seward, Nebraska
Current Conditions -  °F | °C
As of 3:54 AM on Saturday 20 Dec 2014 (Local Time) from KLNK Reporting Station
Haze Haze  
Wind Chill: 27°   Ceiling: 700
Heat Index: 33°   Visibility: 4mi
Dew Point: 31°   Wind: 7mph
Humidity: 92%   Direction: 130°SE
Pressure: 30.1"   Gusts: NA
Location:  40.91°N, 97.1°W
Report Text: KLNK 200954Z AUTO 13006KT 4SM BR OVC007 01/M01 A3010 RMK AO2 SLP204 T00061006
Loading
Personal Weather Stations






























Interactive Weather Map New forecast layout! Learn more

10-Day Weather Forecast

Advertisements
Track Severe Weather on mobile